PWSweather.com
Personal Weather Stations
Station Observations

PoschiavoCH

Lat: 46.31962499999999, Lon: 10.066551000000004

Elevation: 3517

Station Type: WH 1080

http://www.meteoposchiavo.com

High Low Average
Temperature 77.0°F25.0°C 49.0°F9.4°C 60.8°F16.0°C
Dew Point 61.2°F16.2°C 45.0°F7.2°C 51.6°F10.9°C
Winds 2.3 mph 3.7 kmh Calm Calm Calm ECalm E
Wind Gusts 2.3 mph3.7 kmh -- --
Humidity 99% 36% 75%
Pressure 26.84 in908.9 mb 26.69 in903.8 mb -
Precipitation 0.37 in9.4 mm - -
Hour Temp Dew Point Humidity Winds Wind Gusts Pressure Precip Precip Rate Daily Precip Total
12:00 AM 54.0°F12.2°C 48.0°F8.9°C 80% Calm Calm -- 26.81 in907.9 mb - 0.00 in0.0 mm 0.00 in0.0 mm
12:10 AM 55.0°F12.8°C 48.3°F9.1°C 78% Calm Calm -- 26.81 in907.9 mb - 0.00 in0.0 mm 0.00 in0.0 mm
12:15 AM 54.0°F12.2°C 47.6°F8.7°C 79% Calm Calm -- 26.80 in907.6 mb - 0.00 in0.0 mm 0.00 in0.0 mm
12:20 AM 54.0°F12.2°C 47.6°F8.7°C 79% Calm Calm -- 26.80 in907.6 mb - 0.00 in0.0 mm 0.00 in0.0 mm
12:25 AM 54.0°F12.2°C 48.0°F8.9°C 80% Calm Calm -- 26.80 in907.6 mb - 0.00 in0.0 mm 0.00 in0.0 mm
12:30 AM 53.5°F11.9°C 47.5°F8.6°C 80% Calm Calm -- 26.80 in907.6 mb - 0.00 in0.0 mm 0.00 in0.0 mm
12:35 AM 53.0°F11.7°C 47.0°F8.3°C 80% Calm Calm -- 26.80 in907.6 mb - 0.00 in0.0 mm 0.00 in0.0 mm
12:40 AM 53.0°F11.7°C 47.0°F8.3°C 80% Calm Calm -- 26.81 in907.9 mb - 0.00 in0.0 mm 0.00 in0.0 mm
12:45 AM 53.0°F11.7°C 47.3°F8.5°C 81% Calm Calm -- 26.80 in907.6 mb - 0.00 in0.0 mm 0.00 in0.0 mm
12:50 AM 53.0°F11.7°C 47.0°F8.3°C 80% Calm Calm -- 26.80 in907.6 mb - 0.00 in0.0 mm 0.00 in0.0 mm
12:55 AM 54.0°F12.2°C 47.3°F8.5°C 78% Calm Calm -- 26.80 in907.6 mb - 0.00 in0.0 mm 0.00 in0.0 mm
01:00 AM 53.0°F11.7°C 47.0°F8.3°C 80% Calm Calm -- 26.80 in907.6 mb - 0.00 in0.0 mm 0.00 in0.0 mm
01:10 AM 53.0°F11.7°C 47.0°F8.3°C 80% Calm Calm -- 26.80 in907.6 mb - 0.00 in0.0 mm 0.00 in0.0 mm
01:15 AM 53.0°F11.7°C 47.0°F8.3°C 80% Calm Calm -- 26.80 in907.6 mb - 0.00 in0.0 mm 0.00 in0.0 mm
01:20 AM 53.0°F11.7°C 47.0°F8.3°C 80% Calm Calm -- 26.80 in907.6 mb - 0.00 in0.0 mm 0.00 in0.0 mm
01:25 AM 53.0°F11.7°C 47.0°F8.3°C 80% Calm Calm -- 26.80 in907.6 mb - 0.00 in0.0 mm 0.00 in0.0 mm
01:30 AM 53.0°F11.7°C 47.0°F8.3°C 80% Calm Calm -- 26.80 in907.6 mb - 0.00 in0.0 mm 0.00 in0.0 mm
01:35 AM 53.0°F11.7°C 47.0°F8.3°C 80% Calm Calm -- 26.81 in907.9 mb - 0.00 in0.0 mm 0.00 in0.0 mm
01:40 AM 53.0°F11.7°C 47.0°F8.3°C 80% Calm Calm -- 26.81 in907.9 mb - 0.00 in0.0 mm 0.00 in0.0 mm
01:45 AM 53.0°F11.7°C 47.0°F8.3°C 80% Calm Calm -- 26.80 in907.6 mb - 0.00 in0.0 mm 0.00 in0.0 mm
01:50 AM 53.0°F11.7°C 47.3°F8.5°C 81% Calm Calm -- 26.80 in907.6 mb - 0.00 in0.0 mm 0.00 in0.0 mm
01:55 AM 52.0°F11.1°C 46.3°F7.9°C 81% Calm Calm -- 26.81 in907.9 mb - 0.00 in0.0 mm 0.00 in0.0 mm
02:00 AM 52.0°F11.1°C 46.7°F8.2°C 82% Calm Calm -- 26.81 in907.9 mb - 0.00 in0.0 mm 0.00 in0.0 mm
02:10 AM 52.0°F11.1°C 46.4°F8.0°C 81% Calm Calm -- 26.81 in907.9 mb - 0.00 in0.0 mm 0.00 in0.0 mm
02:15 AM 52.0°F11.1°C 46.3°F7.9°C 81% Calm Calm -- 26.81 in907.9 mb - 0.00 in0.0 mm 0.00 in0.0 mm
02:20 AM 52.0°F11.1°C 46.7°F8.2°C 82% Calm Calm -- 26.81 in907.9 mb - 0.00 in0.0 mm 0.00 in0.0 mm
02:25 AM 52.0°F11.1°C 46.7°F8.2°C 82% Calm Calm -- 26.81 in907.9 mb - 0.00 in0.0 mm 0.00 in0.0 mm
02:30 AM 51.0°F10.6°C 46.0°F7.8°C 83% Calm Calm -- 26.81 in907.9 mb - 0.00 in0.0 mm 0.00 in0.0 mm
02:35 AM 51.0°F10.6°C 46.0°F7.8°C 83% Calm Calm -- 26.81 in907.9 mb - 0.00 in0.0 mm 0.00 in0.0 mm
02:40 AM 51.0°F10.6°C 46.0°F7.8°C 83% Calm Calm -- 26.82 in908.2 mb - 0.00 in0.0 mm 0.00 in0.0 mm
02:45 AM 51.0°F10.6°C 46.0°F7.8°C 83% Calm Calm -- 26.81 in907.9 mb - 0.00 in0.0 mm 0.00 in0.0 mm
02:50 AM 51.0°F10.6°C 46.0°F7.8°C 83% Calm Calm -- 26.81 in907.9 mb - 0.00 in0.0 mm 0.00 in0.0 mm
02:55 AM 51.0°F10.6°C 46.0°F7.8°C 83% Calm Calm -- 26.81 in907.9 mb - 0.00 in0.0 mm 0.00 in0.0 mm
03:00 AM 51.0°F10.6°C 46.3°F7.9°C 84% Calm Calm -- 26.81 in907.9 mb - 0.00 in0.0 mm 0.00 in0.0 mm
03:10 AM 51.0°F10.6°C 46.0°F7.8°C 83% Calm Calm -- 26.81 in907.9 mb - 0.00 in0.0 mm 0.00 in0.0 mm
03:15 AM 52.0°F11.1°C 46.7°F8.2°C 82% Calm Calm -- 26.81 in907.9 mb - 0.00 in0.0 mm 0.00 in0.0 mm
03:20 AM 51.1°F10.6°C 45.8°F7.7°C 82% Calm Calm -- 26.81 in907.9 mb - 0.00 in0.0 mm 0.00 in0.0 mm
03:25 AM 51.0°F10.6°C 45.7°F7.6°C 82% Calm Calm -- 26.81 in907.9 mb - 0.00 in0.0 mm 0.00 in0.0 mm
03:30 AM 51.0°F10.6°C 46.0°F7.8°C 83% Calm Calm -- 26.81 in907.9 mb - 0.00 in0.0 mm 0.00 in0.0 mm
03:35 AM 51.0°F10.6°C 45.7°F7.6°C 82% Calm Calm -- 26.81 in907.9 mb - 0.00 in0.0 mm 0.00 in0.0 mm
03:40 AM 50.0°F10.0°C 45.0°F7.2°C 83% Calm Calm -- 26.81 in907.9 mb - 0.00 in0.0 mm 0.00 in0.0 mm
03:45 AM 50.0°F10.0°C 45.4°F7.4°C 84% Calm Calm -- 26.81 in907.9 mb - 0.00 in0.0 mm 0.00 in0.0 mm
03:50 AM 50.0°F10.0°C 45.7°F7.6°C 85% Calm Calm -- 26.81 in907.9 mb - 0.00 in0.0 mm 0.00 in0.0 mm
03:55 AM 50.0°F10.0°C 45.0°F7.2°C 83% Calm Calm -- 26.81 in907.9 mb - 0.00 in0.0 mm 0.00 in0.0 mm
04:00 AM 51.0°F10.6°C 45.7°F7.6°C 82% Calm Calm -- 26.81 in907.9 mb - 0.00 in0.0 mm 0.00 in0.0 mm
04:10 AM 51.0°F10.6°C 46.0°F7.8°C 83% Calm Calm -- 26.80 in907.6 mb - 0.00 in0.0 mm 0.00 in0.0 mm
04:15 AM 50.0°F10.0°C 45.0°F7.2°C 83% Calm Calm -- 26.80 in907.6 mb - 0.00 in0.0 mm 0.00 in0.0 mm
04:20 AM 56.0°F13.3°C 48.5°F9.2°C 76% Calm Calm -- 26.80 in907.6 mb - 0.00 in0.0 mm 0.00 in0.0 mm
04:25 AM 50.6°F10.3°C 45.9°F7.7°C 84% Calm Calm -- 26.80 in907.6 mb - 0.00 in0.0 mm 0.00 in0.0 mm
04:30 AM 50.0°F10.0°C 45.7°F7.6°C 85% Calm Calm -- 26.80 in907.6 mb - 0.00 in0.0 mm 0.00 in0.0 mm
04:35 AM 50.0°F10.0°C 45.4°F7.4°C 84% Calm Calm -- 26.80 in907.6 mb - 0.00 in0.0 mm 0.00 in0.0 mm
04:40 AM 69.0°F20.6°C 49.0°F9.4°C 49% Calm Calm -- 26.70 in904.2 mb - 0.00 in0.0 mm 0.00 in0.0 mm
04:45 AM 49.0°F9.4°C 45.0°F7.2°C 86% Calm Calm -- 26.80 in907.6 mb - 0.00 in0.0 mm 0.00 in0.0 mm
04:50 AM 50.0°F10.0°C 46.0°F7.8°C 86% Calm Calm -- 26.81 in907.9 mb - 0.00 in0.0 mm 0.00 in0.0 mm
04:55 AM 49.2°F9.6°C 45.2°F7.3°C 86% Calm Calm -- 26.81 in907.9 mb - 0.00 in0.0 mm 0.00 in0.0 mm
05:00 AM 49.0°F9.4°C 45.0°F7.2°C 86% Calm Calm -- 26.81 in907.9 mb - 0.00 in0.0 mm 0.00 in0.0 mm
05:10 AM 50.0°F10.0°C 46.0°F7.8°C 86% Calm Calm -- 26.81 in907.9 mb - 0.00 in0.0 mm 0.00 in0.0 mm
05:15 AM 50.0°F10.0°C 46.0°F7.8°C 86% Calm Calm -- 26.81 in907.9 mb - 0.00 in0.0 mm 0.00 in0.0 mm
05:20 AM 50.0°F10.0°C 46.3°F7.9°C 87% Calm Calm -- 26.81 in907.9 mb - 0.00 in0.0 mm 0.00 in0.0 mm
05:25 AM 50.0°F10.0°C 46.0°F7.8°C 86% Calm Calm -- 26.81 in907.9 mb - 0.00 in0.0 mm 0.00 in0.0 mm
05:30 AM 50.0°F10.0°C 46.0°F7.8°C 86% Calm Calm -- 26.81 in907.9 mb - 0.00 in0.0 mm 0.00 in0.0 mm
05:35 AM 51.0°F10.6°C 46.0°F7.8°C 83% Calm Calm -- 26.81 in907.9 mb - 0.00 in0.0 mm 0.00 in0.0 mm
05:40 AM 50.0°F10.0°C 46.0°F7.8°C 86% Calm Calm -- 26.81 in907.9 mb - 0.00 in0.0 mm 0.00 in0.0 mm
05:45 AM 51.0°F10.6°C 47.3°F8.5°C 87% Calm Calm -- 26.81 in907.9 mb - 0.00 in0.0 mm 0.00 in0.0 mm
05:50 AM 51.0°F10.6°C 47.0°F8.3°C 86% Calm Calm -- 26.81 in907.9 mb - 0.00 in0.0 mm 0.00 in0.0 mm
05:55 AM 51.0°F10.6°C 46.6°F8.1°C 85% Calm Calm -- 26.81 in907.9 mb - 0.00 in0.0 mm 0.00 in0.0 mm
06:00 AM 51.0°F10.6°C 46.6°F8.1°C 85% Calm Calm -- 26.81 in907.9 mb - 0.00 in0.0 mm 0.00 in0.0 mm
06:10 AM 51.0°F10.6°C 46.3°F7.9°C 84% Calm Calm -- 26.81 in907.9 mb - 0.00 in0.0 mm 0.00 in0.0 mm
06:15 AM 52.0°F11.1°C 47.3°F8.5°C 84% Calm Calm -- 26.81 in907.9 mb - 0.00 in0.0 mm 0.00 in0.0 mm
06:20 AM 53.0°F11.7°C 48.0°F8.9°C 83% Calm Calm -- 26.81 in907.9 mb - 0.00 in0.0 mm 0.00 in0.0 mm
06:25 AM 53.0°F11.7°C 48.0°F8.9°C 83% Calm Calm -- 26.82 in908.2 mb - 0.00 in0.0 mm 0.00 in0.0 mm
06:30 AM 53.0°F11.7°C 48.0°F8.9°C 83% Calm Calm -- 26.82 in908.2 mb - 0.00 in0.0 mm 0.00 in0.0 mm
06:35 AM 53.0°F11.7°C 47.7°F8.7°C 82% Calm Calm -- 26.81 in907.9 mb - 0.00 in0.0 mm 0.00 in0.0 mm
06:40 AM 53.0°F11.7°C 48.3°F9.1°C 84% Calm Calm -- 26.81 in907.9 mb - 0.00 in0.0 mm 0.00 in0.0 mm
06:45 AM 53.0°F11.7°C 48.3°F9.1°C 84% Calm Calm -- 26.82 in908.2 mb - 0.00 in0.0 mm 0.00 in0.0 mm
06:50 AM 54.0°F12.2°C 48.6°F9.2°C 82% Calm Calm -- 26.81 in907.9 mb - 0.00 in0.0 mm 0.00 in0.0 mm
06:55 AM 54.0°F12.2°C 48.6°F9.2°C 82% Calm Calm -- 26.82 in908.2 mb - 0.00 in0.0 mm 0.00 in0.0 mm
07:00 AM 54.0°F12.2°C 48.6°F9.2°C 82% Calm Calm -- 26.82 in908.2 mb - 0.00 in0.0 mm 0.00 in0.0 mm
07:10 AM 54.0°F12.2°C 49.0°F9.4°C 83% Calm Calm -- 26.82 in908.2 mb - 0.00 in0.0 mm 0.00 in0.0 mm
07:15 AM 54.0°F12.2°C 48.6°F9.2°C 82% Calm Calm -- 26.82 in908.2 mb - 0.00 in0.0 mm 0.00 in0.0 mm
07:20 AM 55.0°F12.8°C 48.9°F9.4°C 80% Calm Calm -- 26.81 in907.9 mb - 0.00 in0.0 mm 0.00 in0.0 mm
07:25 AM 55.0°F12.8°C 48.9°F9.4°C 80% Calm Calm -- 26.82 in908.2 mb - 0.00 in0.0 mm 0.00 in0.0 mm
07:30 AM 55.0°F12.8°C 48.9°F9.4°C 80% Calm Calm -- 26.82 in908.2 mb - 0.00 in0.0 mm 0.00 in0.0 mm
07:35 AM 56.0°F13.3°C 50.3°F10.2°C 81% Calm Calm -- 26.82 in908.2 mb - 0.00 in0.0 mm 0.00 in0.0 mm
07:40 AM 60.0°F15.6°C 51.3°F10.7°C 73% Calm Calm -- 26.80 in907.6 mb - 0.00 in0.0 mm 0.00 in0.0 mm
07:45 AM 63.0°F17.2°C 51.5°F10.8°C 66% Calm Calm -- 26.81 in907.9 mb - 0.00 in0.0 mm 0.00 in0.0 mm
07:50 AM 64.0°F17.8°C 49.8°F9.9°C 60% Calm Calm -- 26.81 in907.9 mb - 0.00 in0.0 mm 0.00 in0.0 mm
07:55 AM 64.6°F18.1°C 49.9°F9.9°C 59% Calm Calm -- 26.80 in907.6 mb - 0.00 in0.0 mm 0.00 in0.0 mm
08:00 AM 65.0°F18.3°C 50.3°F10.2°C 59% Calm Calm -- 26.80 in907.6 mb - 0.00 in0.0 mm 0.00 in0.0 mm
08:10 AM 67.0°F19.4°C 50.8°F10.4°C 56% Calm Calm -- 26.82 in908.2 mb - 0.00 in0.0 mm 0.00 in0.0 mm
08:15 AM 64.0°F17.8°C 48.5°F9.2°C 57% Calm Calm -- 26.82 in908.2 mb - 0.00 in0.0 mm 0.00 in0.0 mm
08:20 AM 64.0°F17.8°C 50.7°F10.4°C 62% Calm Calm -- 26.82 in908.2 mb - 0.00 in0.0 mm 0.00 in0.0 mm
08:25 AM 64.0°F17.8°C 51.1°F10.6°C 63% Calm Calm -- 26.83 in908.6 mb - 0.00 in0.0 mm 0.00 in0.0 mm
08:30 AM 64.0°F17.8°C 51.6°F10.9°C 64% Calm Calm -- 26.83 in908.6 mb - 0.00 in0.0 mm 0.00 in0.0 mm
08:35 AM 63.0°F17.2°C 49.3°F9.6°C 61% Calm Calm 1.2 mph1.9 kmh 26.83 in908.6 mb - 0.00 in0.0 mm 0.00 in0.0 mm
08:40 AM 62.0°F16.7°C 50.1°F10.1°C 65% Calm Calm 1.2 mph1.9 kmh 26.84 in908.9 mb - 0.00 in0.0 mm 0.00 in0.0 mm
08:45 AM 62.0°F16.7°C 51.7°F10.9°C 69% Calm Calm -- 26.83 in908.6 mb - 0.00 in0.0 mm 0.00 in0.0 mm
08:50 AM 61.0°F16.1°C 50.0°F10.0°C 67% Calm Calm -- 26.84 in908.9 mb - 0.00 in0.0 mm 0.00 in0.0 mm
08:55 AM 61.5°F16.4°C 50.1°F10.1°C 66% Calm Calm -- 26.84 in908.9 mb - 0.00 in0.0 mm 0.00 in0.0 mm
09:00 AM 62.0°F16.7°C 50.5°F10.3°C 66% Calm Calm -- 26.84 in908.9 mb - 0.00 in0.0 mm 0.00 in0.0 mm
09:10 AM 62.0°F16.7°C 54.0°F12.2°C 75% Calm Calm -- 26.84 in908.9 mb - 0.00 in0.0 mm 0.00 in0.0 mm
09:15 AM 62.0°F16.7°C 52.1°F11.2°C 70% Calm Calm -- 26.83 in908.6 mb - 0.00 in0.0 mm 0.00 in0.0 mm
09:20 AM 61.0°F16.1°C 54.4°F12.4°C 79% Calm Calm -- 26.83 in908.6 mb - 0.00 in0.0 mm 0.00 in0.0 mm
09:25 AM 61.0°F16.1°C 54.1°F12.3°C 78% Calm Calm -- 26.83 in908.6 mb - 0.00 in0.0 mm 0.00 in0.0 mm
09:30 AM 61.0°F16.1°C 53.4°F11.9°C 76% Calm Calm -- 26.83 in908.6 mb - 0.00 in0.0 mm 0.00 in0.0 mm
09:35 AM 61.0°F16.1°C 53.7°F12.1°C 77% Calm Calm -- 26.82 in908.2 mb - 0.00 in0.0 mm 0.00 in0.0 mm
09:40 AM 62.0°F16.7°C 52.5°F11.4°C 71% Calm Calm 1.2 mph1.9 kmh 26.81 in907.9 mb - 0.00 in0.0 mm 0.00 in0.0 mm
09:45 AM 62.0°F16.7°C 52.5°F11.4°C 71% Calm Calm -- 26.81 in907.9 mb - 0.00 in0.0 mm 0.00 in0.0 mm
09:50 AM 64.0°F17.8°C 54.4°F12.4°C 71% Calm Calm -- 26.81 in907.9 mb - 0.00 in0.0 mm 0.00 in0.0 mm
09:55 AM 64.5°F18.1°C 54.1°F12.3°C 69% Calm Calm -- 26.80 in907.6 mb - 0.00 in0.0 mm 0.00 in0.0 mm
10:00 AM 65.0°F18.3°C 53.8°F12.1°C 67% Calm Calm -- 26.80 in907.6 mb - 0.00 in0.0 mm 0.00 in0.0 mm
10:10 AM 67.0°F19.4°C 52.7°F11.5°C 60% Calm Calm -- 26.79 in907.2 mb - 0.00 in0.0 mm 0.00 in0.0 mm
10:15 AM 68.0°F20.0°C 50.7°F10.4°C 54% Calm Calm -- 26.79 in907.2 mb - 0.00 in0.0 mm 0.00 in0.0 mm
10:20 AM 68.0°F20.0°C 51.2°F10.7°C 55% Calm Calm -- 26.79 in907.2 mb - 0.00 in0.0 mm 0.00 in0.0 mm
10:25 AM 69.0°F20.6°C 51.7°F10.9°C 54% Calm Calm -- 26.79 in907.2 mb - 0.00 in0.0 mm 0.00 in0.0 mm
10:30 AM 70.0°F21.1°C 51.6°F10.9°C 52% Calm Calm -- 26.79 in907.2 mb - 0.00 in0.0 mm 0.00 in0.0 mm
10:35 AM 69.0°F20.6°C 50.1°F10.1°C 51% Calm Calm -- 26.78 in906.9 mb - 0.00 in0.0 mm 0.00 in0.0 mm
10:40 AM 70.0°F21.1°C 50.5°F10.3°C 50% Calm Calm 1.2 mph1.9 kmh 26.78 in906.9 mb - 0.00 in0.0 mm 0.00 in0.0 mm
10:45 AM 71.0°F21.7°C 49.7°F9.8°C 47% 1.2 mph SE1.9 kmh SE 1.2 mph1.9 kmh 26.78 in906.9 mb - 0.00 in0.0 mm 0.00 in0.0 mm
10:50 AM 71.0°F21.7°C 49.2°F9.6°C 46% Calm Calm -- 26.78 in906.9 mb - 0.00 in0.0 mm 0.00 in0.0 mm
10:55 AM 71.0°F21.7°C 49.2°F9.6°C 46% Calm Calm -- 26.78 in906.9 mb - 0.00 in0.0 mm 0.00 in0.0 mm
11:00 AM 71.0°F21.7°C 49.7°F9.8°C 47% Calm Calm -- 26.78 in906.9 mb - 0.00 in0.0 mm 0.00 in0.0 mm
11:10 AM 73.0°F22.8°C 50.4°F10.2°C 45% Calm Calm -- 26.78 in906.9 mb - 0.00 in0.0 mm 0.00 in0.0 mm
11:15 AM 71.0°F21.7°C 49.2°F9.6°C 46% Calm Calm 1.2 mph1.9 kmh 26.78 in906.9 mb - 0.00 in0.0 mm 0.00 in0.0 mm
11:20 AM 72.0°F22.2°C 48.3°F9.1°C 43% 1.2 mph WSW1.9 kmh WSW 2.3 mph3.7 kmh 26.78 in906.9 mb - 0.00 in0.0 mm 0.00 in0.0 mm
11:25 AM 72.5°F22.5°C 49.9°F9.9°C 45% 1.2 mph WSW1.9 kmh WSW 2.3 mph3.7 kmh 26.78 in906.9 mb - 0.00 in0.0 mm 0.00 in0.0 mm
11:30 AM 73.0°F22.8°C 51.6°F10.9°C 47% 2.3 mph WSW3.7 kmh WSW 2.3 mph3.7 kmh 26.78 in906.9 mb - 0.00 in0.0 mm 0.00 in0.0 mm
11:35 AM 72.0°F22.2°C 48.3°F9.1°C 43% Calm Calm 1.2 mph1.9 kmh 26.77 in906.5 mb - 0.00 in0.0 mm 0.00 in0.0 mm
11:40 AM 71.0°F21.7°C 48.6°F9.2°C 45% 1.2 mph NNE1.9 kmh NNE 1.2 mph1.9 kmh 26.78 in906.9 mb - 0.00 in0.0 mm 0.00 in0.0 mm
11:45 AM 71.0°F21.7°C 47.4°F8.6°C 43% 1.2 mph NE1.9 kmh NE 1.2 mph1.9 kmh 26.77 in906.5 mb - 0.00 in0.0 mm 0.00 in0.0 mm
11:50 AM 74.0°F23.3°C 50.1°F10.1°C 43% Calm Calm -- 26.77 in906.5 mb - 0.00 in0.0 mm 0.00 in0.0 mm
11:55 AM 75.1°F23.9°C 49.1°F9.5°C 40% Calm Calm -- 26.77 in906.5 mb - 0.00 in0.0 mm 0.00 in0.0 mm
12:00 PM 76.0°F24.4°C 48.6°F9.2°C 38% Calm Calm -- 26.77 in906.5 mb - 0.00 in0.0 mm 0.00 in0.0 mm
12:10 PM 77.0°F25.0°C 48.0°F8.9°C 36% Calm Calm -- 26.76 in906.2 mb - 0.00 in0.0 mm 0.00 in0.0 mm
12:15 PM 77.0°F25.0°C 48.0°F8.9°C 36% Calm Calm -- 26.76 in906.2 mb - 0.00 in0.0 mm 0.00 in0.0 mm
12:20 PM 76.0°F24.4°C 48.6°F9.2°C 38% Calm Calm -- 26.76 in906.2 mb - 0.00 in0.0 mm 0.00 in0.0 mm
12:25 PM 75.5°F24.2°C 49.5°F9.7°C 40% Calm Calm -- 26.76 in906.2 mb - 0.00 in0.0 mm 0.00 in0.0 mm
12:30 PM 75.0°F23.9°C 49.7°F9.8°C 41% Calm Calm -- 26.76 in906.2 mb - 0.00 in0.0 mm 0.00 in0.0 mm
12:35 PM 71.0°F21.7°C 47.4°F8.6°C 43% Calm Calm -- 26.76 in906.2 mb - 0.00 in0.0 mm 0.00 in0.0 mm
12:40 PM 71.0°F21.7°C 48.0°F8.9°C 44% Calm Calm -- 26.76 in906.2 mb - 0.00 in0.0 mm 0.00 in0.0 mm
12:45 PM 73.0°F22.8°C 47.9°F8.8°C 41% Calm Calm -- 26.75 in905.9 mb - 0.00 in0.0 mm 0.00 in0.0 mm
12:50 PM 73.0°F22.8°C 47.9°F8.8°C 41% 1.2 mph S1.9 kmh S 1.2 mph1.9 kmh 26.75 in905.9 mb - 0.00 in0.0 mm 0.00 in0.0 mm
12:55 PM 72.4°F22.4°C 48.6°F9.2°C 43% Calm Calm 1.2 mph1.9 kmh 26.75 in905.9 mb - 0.00 in0.0 mm 0.00 in0.0 mm
01:00 PM 72.0°F22.2°C 48.9°F9.4°C 44% Calm Calm 1.2 mph1.9 kmh 26.75 in905.9 mb - 0.00 in0.0 mm 0.00 in0.0 mm
01:10 PM 71.0°F21.7°C 50.3°F10.2°C 48% Calm Calm -- 26.75 in905.9 mb - 0.00 in0.0 mm 0.00 in0.0 mm
01:15 PM 71.0°F21.7°C 55.0°F12.8°C 57% Calm Calm -- 26.75 in905.9 mb - 0.00 in0.0 mm 0.00 in0.0 mm
01:20 PM 73.0°F22.8°C 56.4°F13.6°C 56% Calm Calm -- 26.74 in905.5 mb - 0.00 in0.0 mm 0.00 in0.0 mm
01:25 PM 73.5°F23.1°C 54.8°F12.7°C 52% Calm Calm -- 26.74 in905.5 mb - 0.00 in0.0 mm 0.00 in0.0 mm
01:30 PM 74.0°F23.3°C 53.6°F12.0°C 49% Calm Calm -- 26.74 in905.5 mb - 0.00 in0.0 mm 0.00 in0.0 mm
01:35 PM 75.0°F23.9°C 53.4°F11.9°C 47% Calm Calm -- 26.74 in905.5 mb - 0.00 in0.0 mm 0.00 in0.0 mm
01:40 PM 76.0°F24.4°C 54.9°F12.7°C 48% Calm Calm -- 26.72 in904.8 mb - 0.00 in0.0 mm 0.00 in0.0 mm
01:45 PM 74.0°F23.3°C 53.6°F12.0°C 49% Calm Calm -- 26.72 in904.8 mb - 0.00 in0.0 mm 0.00 in0.0 mm
01:50 PM 73.0°F22.8°C 52.1°F11.2°C 48% Calm Calm -- 26.73 in905.2 mb - 0.00 in0.0 mm 0.00 in0.0 mm
01:55 PM 73.0°F22.8°C 52.1°F11.2°C 48% Calm Calm -- 26.73 in905.2 mb - 0.00 in0.0 mm 0.00 in0.0 mm
02:00 PM 73.0°F22.8°C 52.7°F11.5°C 49% Calm Calm -- 26.73 in905.2 mb - 0.00 in0.0 mm 0.00 in0.0 mm
02:10 PM 73.0°F22.8°C 51.6°F10.9°C 47% Calm Calm -- 26.72 in904.8 mb - 0.00 in0.0 mm 0.00 in0.0 mm
02:15 PM 73.0°F22.8°C 53.3°F11.8°C 50% Calm Calm -- 26.72 in904.8 mb - 0.00 in0.0 mm 0.00 in0.0 mm
02:20 PM 73.0°F22.8°C 53.8°F12.1°C 51% Calm Calm -- 26.72 in904.8 mb - 0.00 in0.0 mm 0.00 in0.0 mm
02:25 PM 73.3°F22.9°C 61.2°F16.2°C 66% Calm Calm -- 26.72 in904.8 mb - 0.00 in0.0 mm 0.00 in0.0 mm
02:30 PM 74.0°F23.3°C 61.0°F16.1°C 64% Calm Calm -- 26.72 in904.8 mb - 0.00 in0.0 mm 0.00 in0.0 mm
02:35 PM 77.0°F25.0°C 55.8°F13.2°C 48% Calm Calm -- 26.72 in904.8 mb - 0.00 in0.0 mm 0.00 in0.0 mm
02:40 PM 76.0°F24.4°C 53.1°F11.7°C 45% 1.2 mph ESE1.9 kmh ESE 1.2 mph1.9 kmh 26.72 in904.8 mb - 0.00 in0.0 mm 0.00 in0.0 mm
02:45 PM 76.0°F24.4°C 53.7°F12.1°C 46% Calm Calm -- 26.72 in904.8 mb - 0.00 in0.0 mm 0.00 in0.0 mm
02:50 PM 75.0°F23.9°C 55.6°F13.1°C 51% Calm Calm -- 26.72 in904.8 mb - 0.00 in0.0 mm 0.00 in0.0 mm
02:55 PM 74.7°F23.7°C 55.4°F13.0°C 51% Calm Calm -- 26.72 in904.8 mb - 0.00 in0.0 mm 0.00 in0.0 mm
03:00 PM 74.0°F23.3°C 55.3°F12.9°C 52% Calm Calm -- 26.72 in904.8 mb - 0.00 in0.0 mm 0.00 in0.0 mm
03:10 PM 73.0°F22.8°C 56.9°F13.8°C 57% Calm Calm -- 26.71 in904.5 mb - 0.00 in0.0 mm 0.00 in0.0 mm
03:15 PM 73.0°F22.8°C 56.4°F13.6°C 56% Calm Calm -- 26.72 in904.8 mb - 0.00 in0.0 mm 0.00 in0.0 mm
03:20 PM 72.0°F22.2°C 53.9°F12.2°C 53% Calm Calm -- 26.72 in904.8 mb - 0.00 in0.0 mm 0.00 in0.0 mm
03:25 PM 71.7°F22.1°C 54.7°F12.6°C 55% Calm Calm 1.2 mph1.9 kmh 26.72 in904.8 mb - 0.00 in0.0 mm 0.00 in0.0 mm
03:30 PM 71.0°F21.7°C 55.9°F13.3°C 59% Calm Calm 1.2 mph1.9 kmh 26.72 in904.8 mb - 0.00 in0.0 mm 0.00 in0.0 mm
03:35 PM 69.0°F20.6°C 56.3°F13.5°C 64% Calm Calm -- 26.72 in904.8 mb - 0.00 in0.0 mm 0.00 in0.0 mm
03:40 PM 69.0°F20.6°C 57.6°F14.2°C 67% Calm Calm -- 26.73 in905.2 mb - 0.00 in0.0 mm 0.00 in0.0 mm
03:45 PM 67.0°F19.4°C 56.9°F13.8°C 70% 1.2 mph E1.9 kmh E 1.2 mph1.9 kmh 26.72 in904.8 mb - 0.00 in0.0 mm 0.00 in0.0 mm
03:50 PM 67.0°F19.4°C 55.3°F12.9°C 66% 1.2 mph ENE1.9 kmh ENE 1.2 mph1.9 kmh 26.71 in904.5 mb - 0.00 in0.0 mm 0.00 in0.0 mm
03:55 PM 67.0°F19.4°C 55.7°F13.2°C 67% 1.2 mph E1.9 kmh E 1.2 mph1.9 kmh 26.71 in904.5 mb - 0.00 in0.0 mm 0.00 in0.0 mm
04:00 PM 67.0°F19.4°C 56.9°F13.8°C 70% Calm Calm -- 26.71 in904.5 mb - 0.00 in0.0 mm 0.00 in0.0 mm
04:10 PM 68.0°F20.0°C 57.0°F13.9°C 68% Calm Calm -- 26.71 in904.5 mb - 0.00 in0.0 mm 0.00 in0.0 mm
04:15 PM 69.0°F20.6°C 55.4°F13.0°C 62% Calm Calm -- 26.71 in904.5 mb - 0.00 in0.0 mm 0.00 in0.0 mm
04:20 PM 68.0°F20.0°C 56.2°F13.4°C 66% Calm Calm -- 26.70 in904.2 mb - 0.00 in0.0 mm 0.00 in0.0 mm
04:25 PM 68.0°F20.0°C 56.2°F13.4°C 66% Calm Calm 1.2 mph1.9 kmh 26.70 in904.2 mb - 0.00 in0.0 mm 0.00 in0.0 mm
04:30 PM 68.0°F20.0°C 55.8°F13.2°C 65% 1.2 mph NNE1.9 kmh NNE 1.2 mph1.9 kmh 26.71 in904.5 mb - 0.00 in0.0 mm 0.00 in0.0 mm
04:35 PM 67.0°F19.4°C 53.5°F11.9°C 62% Calm Calm -- 26.71 in904.5 mb - 0.00 in0.0 mm 0.00 in0.0 mm
04:40 PM 68.0°F20.0°C 54.5°F12.5°C 62% Calm Calm -- 26.70 in904.2 mb - 0.00 in0.0 mm 0.00 in0.0 mm
04:45 PM 67.0°F19.4°C 54.0°F12.2°C 63% Calm Calm -- 26.71 in904.5 mb - 0.00 in0.0 mm 0.00 in0.0 mm
04:50 PM 66.8°F19.3°C 54.2°F12.3°C 64% Calm Calm 1.2 mph1.9 kmh 26.71 in904.5 mb - 0.00 in0.0 mm 0.00 in0.0 mm
04:55 PM 66.0°F18.9°C 56.3°F13.5°C 71% 1.2 mph NW1.9 kmh NW 1.2 mph1.9 kmh 26.71 in904.5 mb - 0.00 in0.0 mm 0.00 in0.0 mm
05:00 PM 65.0°F18.3°C 56.1°F13.4°C 73% Calm Calm -- 26.71 in904.5 mb - 0.00 in0.0 mm 0.00 in0.0 mm
05:10 PM 64.0°F17.8°C 55.9°F13.3°C 75% Calm Calm -- 26.71 in904.5 mb - 0.00 in0.0 mm 0.00 in0.0 mm
05:15 PM 64.0°F17.8°C 55.9°F13.3°C 75% Calm Calm -- 26.71 in904.5 mb - 0.00 in0.0 mm 0.00 in0.0 mm
05:20 PM 64.0°F17.8°C 56.6°F13.7°C 77% Calm Calm -- 26.73 in905.2 mb - 0.00 in0.0 mm 0.00 in0.0 mm
05:25 PM 64.0°F17.8°C 58.4°F14.7°C 82% Calm Calm -- 26.73 in905.2 mb - 0.00 in0.0 mm 0.00 in0.0 mm
05:30 PM 64.0°F17.8°C 58.1°F14.5°C 81% Calm Calm -- 26.73 in905.2 mb - 0.00 in0.0 mm 0.00 in0.0 mm
05:35 PM 63.0°F17.2°C 54.9°F12.7°C 75% Calm Calm 1.2 mph1.9 kmh 26.73 in905.2 mb - 0.00 in0.0 mm 0.00 in0.0 mm
05:40 PM 63.0°F17.2°C 55.3°F12.9°C 76% 1.2 mph N1.9 kmh N 1.2 mph1.9 kmh 26.74 in905.5 mb - 0.00 in0.0 mm 0.00 in0.0 mm
05:45 PM 62.9°F17.2°C 55.2°F12.9°C 76% 1.2 mph N1.9 kmh N 1.2 mph1.9 kmh 26.74 in905.5 mb - 0.00 in0.0 mm 0.00 in0.0 mm
05:50 PM 62.0°F16.7°C 53.6°F12.0°C 74% Calm Calm -- 26.74 in905.5 mb - 0.00 in0.0 mm 0.00 in0.0 mm
05:55 PM 63.0°F17.2°C 53.8°F12.1°C 72% Calm Calm 1.2 mph1.9 kmh 26.73 in905.2 mb - 0.00 in0.0 mm 0.00 in0.0 mm
06:00 PM 63.0°F17.2°C 53.8°F12.1°C 72% Calm Calm 1.2 mph1.9 kmh 26.72 in904.8 mb - 0.00 in0.0 mm 0.00 in0.0 mm
06:10 PM 63.1°F17.3°C 55.8°F13.2°C 77% Calm Calm -- 26.71 in904.5 mb - 0.00 in0.0 mm 0.00 in0.0 mm
06:15 PM 64.0°F17.8°C 55.9°F13.3°C 75% Calm Calm -- 26.71 in904.5 mb - 0.00 in0.0 mm 0.00 in0.0 mm
06:20 PM 64.0°F17.8°C 55.2°F12.9°C 73% Calm Calm 1.2 mph1.9 kmh 26.70 in904.2 mb - 0.00 in0.0 mm 0.00 in0.0 mm
06:25 PM 63.0°F17.2°C 55.3°F12.9°C 76% Calm Calm -- 26.70 in904.2 mb - 0.00 in0.0 mm 0.00 in0.0 mm
06:30 PM 63.0°F17.2°C 54.9°F12.7°C 75% Calm Calm -- 26.70 in904.2 mb - 0.00 in0.0 mm 0.00 in0.0 mm
06:35 PM 63.0°F17.2°C 55.7°F13.2°C 77% Calm Calm -- 26.70 in904.2 mb - 0.00 in0.0 mm 0.00 in0.0 mm
06:40 PM 63.0°F17.2°C 55.7°F13.2°C 77% Calm Calm -- 26.70 in904.2 mb - 0.00 in0.0 mm 0.00 in0.0 mm
06:45 PM 62.0°F16.7°C 55.1°F12.8°C 78% Calm Calm -- 26.70 in904.2 mb - 0.00 in0.0 mm 0.00 in0.0 mm
06:50 PM 62.0°F16.7°C 55.1°F12.8°C 78% Calm Calm -- 26.70 in904.2 mb - 0.00 in0.0 mm 0.00 in0.0 mm
06:55 PM 62.0°F16.7°C 55.1°F12.8°C 78% Calm Calm -- 26.69 in903.8 mb - 0.00 in0.0 mm 0.00 in0.0 mm
07:00 PM 62.0°F16.7°C 55.4°F13.0°C 79% Calm Calm -- 26.69 in903.8 mb - 0.00 in0.0 mm 0.00 in0.0 mm
07:10 PM 62.0°F16.7°C 55.4°F13.0°C 79% Calm Calm -- 26.70 in904.2 mb - 0.00 in0.0 mm 0.00 in0.0 mm
07:15 PM 62.0°F16.7°C 58.1°F14.5°C 87% Calm Calm -- 26.70 in904.2 mb - 0.00 in0.0 mm 0.00 in0.0 mm
07:20 PM 60.0°F15.6°C 57.7°F14.3°C 92% Calm Calm -- 26.72 in904.8 mb - 0.01 in0.3 mm 0.01 in0.3 mm
07:25 PM 59.5°F15.3°C 57.8°F14.3°C 94% Calm Calm 1.2 mph1.9 kmh 26.72 in904.8 mb - 0.16 in4.1 mm 0.16 in4.1 mm
07:30 PM 59.0°F15.0°C 57.9°F14.4°C 96% Calm Calm 1.2 mph1.9 kmh 26.72 in904.8 mb - 0.16 in4.1 mm 0.16 in4.1 mm
07:35 PM 59.0°F15.0°C 58.2°F14.6°C 97% 1.2 mph E1.9 kmh E 1.2 mph1.9 kmh 26.73 in905.2 mb - 0.20 in5.1 mm 0.20 in5.1 mm
07:40 PM 58.0°F14.4°C 57.2°F14.0°C 97% Calm Calm -- 26.74 in905.5 mb - 0.21 in5.3 mm 0.21 in5.3 mm
07:45 PM 58.0°F14.4°C 57.2°F14.0°C 97% Calm Calm -- 26.73 in905.2 mb - 0.22 in5.6 mm 0.22 in5.6 mm
07:50 PM 58.0°F14.4°C 57.2°F14.0°C 97% Calm Calm -- 26.76 in906.2 mb - 0.25 in6.4 mm 0.25 in6.4 mm
07:55 PM 57.5°F14.2°C 56.9°F13.8°C 98% Calm Calm -- 26.77 in906.5 mb - 0.26 in6.6 mm 0.26 in6.6 mm
08:00 PM 57.0°F13.9°C 56.4°F13.6°C 98% Calm Calm -- 26.77 in906.5 mb - 0.26 in6.6 mm 0.26 in6.6 mm
08:10 PM 57.0°F13.9°C 56.4°F13.6°C 98% Calm Calm -- 26.75 in905.9 mb - 0.30 in7.6 mm 0.30 in7.6 mm
08:15 PM 57.0°F13.9°C 56.4°F13.6°C 98% 1.2 mph NE1.9 kmh NE 1.2 mph1.9 kmh 26.76 in906.2 mb - 0.31 in7.9 mm 0.31 in7.9 mm
08:20 PM 57.0°F13.9°C 56.4°F13.6°C 98% Calm Calm -- 26.74 in905.5 mb - 0.32 in8.1 mm 0.33 in8.4 mm
08:25 PM 57.0°F13.9°C 56.4°F13.6°C 98% Calm Calm -- 26.75 in905.9 mb - 0.33 in8.4 mm 0.34 in8.6 mm
08:30 PM 57.0°F13.9°C 56.4°F13.6°C 98% Calm Calm -- 26.75 in905.9 mb - 0.18 in4.6 mm 0.34 in8.6 mm
08:35 PM 57.0°F13.9°C 56.4°F13.6°C 98% Calm Calm -- 26.75 in905.9 mb - 0.14 in3.6 mm 0.34 in8.6 mm
08:40 PM 56.0°F13.3°C 55.4°F13.0°C 98% Calm Calm 1.2 mph1.9 kmh 26.74 in905.5 mb - 0.13 in3.3 mm 0.34 in8.6 mm
08:45 PM 57.0°F13.9°C 56.4°F13.6°C 98% Calm Calm -- 26.75 in905.9 mb - 0.12 in3.0 mm 0.34 in8.6 mm
08:50 PM 57.0°F13.9°C 56.4°F13.6°C 98% Calm Calm -- 26.76 in906.2 mb - 0.09 in2.3 mm 0.34 in8.6 mm
08:55 PM 57.0°F13.9°C 56.4°F13.6°C 98% Calm Calm -- 26.76 in906.2 mb - 0.10 in2.5 mm 0.35 in8.9 mm
09:00 PM 56.8°F13.8°C 56.2°F13.4°C 98% Calm Calm -- 26.76 in906.2 mb - 0.09 in2.3 mm 0.35 in8.9 mm
09:10 PM 57.0°F13.9°C 56.4°F13.6°C 98% 1.2 mph E1.9 kmh E 1.2 mph1.9 kmh 26.74 in905.5 mb - 0.05 in1.3 mm 0.35 in8.9 mm
09:15 PM 57.0°F13.9°C 56.4°F13.6°C 98% 1.2 mph ENE1.9 kmh ENE 1.2 mph1.9 kmh 26.75 in905.9 mb - 0.04 in1.0 mm 0.35 in8.9 mm
09:20 PM 56.0°F13.3°C 55.4°F13.0°C 98% Calm Calm -- 26.75 in905.9 mb - 0.02 in0.5 mm 0.35 in8.9 mm
09:25 PM 57.0°F13.9°C 56.4°F13.6°C 98% Calm Calm -- 26.74 in905.5 mb - 0.02 in0.5 mm 0.35 in8.9 mm
09:30 PM 57.0°F13.9°C 56.4°F13.6°C 98% Calm Calm -- 26.73 in905.2 mb - 0.03 in0.8 mm 0.37 in9.4 mm
09:35 PM 57.0°F13.9°C 56.4°F13.6°C 98% Calm Calm -- 26.73 in905.2 mb - 0.03 in0.8 mm 0.37 in9.4 mm
09:40 PM 57.0°F13.9°C 56.7°F13.7°C 99% Calm Calm -- 26.73 in905.2 mb - 0.03 in0.8 mm 0.37 in9.4 mm
09:45 PM 57.0°F13.9°C 56.7°F13.7°C 99% Calm Calm -- 26.73 in905.2 mb - 0.03 in0.8 mm 0.37 in9.4 mm
09:50 PM 56.0°F13.3°C 55.7°F13.2°C 99% Calm Calm -- 26.73 in905.2 mb - 0.03 in0.8 mm 0.37 in9.4 mm
09:55 PM 56.0°F13.3°C 55.7°F13.2°C 99% Calm Calm -- 26.73 in905.2 mb - 0.02 in0.5 mm 0.37 in9.4 mm
10:00 PM 56.0°F13.3°C 55.7°F13.2°C 99% Calm Calm -- 26.73 in905.2 mb - 0.02 in0.5 mm 0.37 in9.4 mm
10:10 PM 56.0°F13.3°C 55.7°F13.2°C 99% Calm Calm -- 26.72 in904.8 mb - 0.02 in0.5 mm 0.37 in9.4 mm
10:15 PM 56.0°F13.3°C 55.7°F13.2°C 99% Calm Calm -- 26.72 in904.8 mb - 0.02 in0.5 mm 0.37 in9.4 mm
10:20 PM 56.0°F13.3°C 55.7°F13.2°C 99% Calm Calm -- 26.72 in904.8 mb - 0.02 in0.5 mm 0.37 in9.4 mm
10:25 PM 56.0°F13.3°C 55.7°F13.2°C 99% Calm Calm -- 26.71 in904.5 mb - 0.02 in0.5 mm 0.37 in9.4 mm
10:30 PM 56.0°F13.3°C 55.7°F13.2°C 99% Calm Calm -- 26.71 in904.5 mb - 0.02 in0.5 mm 0.37 in9.4 mm
10:35 PM 55.0°F12.8°C 54.7°F12.6°C 99% Calm Calm -- 26.72 in904.8 mb - 0.00 in0.0 mm 0.37 in9.4 mm
10:40 PM 55.0°F12.8°C 54.7°F12.6°C 99% Calm Calm -- 26.71 in904.5 mb - 0.00 in0.0 mm 0.37 in9.4 mm
10:45 PM 55.0°F12.8°C 54.7°F12.6°C 99% Calm Calm -- 26.71 in904.5 mb - 0.00 in0.0 mm 0.37 in9.4 mm
10:50 PM 55.0°F12.8°C 54.7°F12.6°C 99% Calm Calm -- 26.71 in904.5 mb - 0.00 in0.0 mm 0.37 in9.4 mm
10:55 PM 55.0°F12.8°C 54.7°F12.6°C 99% Calm Calm -- 26.72 in904.8 mb - 0.00 in0.0 mm 0.37 in9.4 mm
11:00 PM 55.0°F12.8°C 54.7°F12.6°C 99% Calm Calm -- 26.71 in904.5 mb - 0.00 in0.0 mm 4.26 in108.2 mm
11:10 PM 55.0°F12.8°C 54.7°F12.6°C 99% Calm Calm -- 26.71 in904.5 mb - 0.00 in0.0 mm 4.26 in108.2 mm
11:15 PM 55.0°F12.8°C 54.7°F12.6°C 99% Calm Calm -- 26.70 in904.2 mb - 0.00 in0.0 mm 4.26 in108.2 mm
11:20 PM 55.0°F12.8°C 54.7°F12.6°C 99% Calm Calm -- 26.70 in904.2 mb - 0.00 in0.0 mm 4.26 in108.2 mm
11:25 PM 54.0°F12.2°C 53.7°F12.1°C 99% Calm Calm -- 26.70 in904.2 mb - 0.00 in0.0 mm 4.26 in108.2 mm
11:30 PM 54.0°F12.2°C 53.7°F12.1°C 99% Calm Calm -- 26.70 in904.2 mb - 0.00 in0.0 mm 4.26 in108.2 mm
11:35 PM 56.0°F13.3°C 55.4°F13.0°C 98% Calm Calm -- 26.75 in905.9 mb - 0.00 in0.0 mm 4.26 in108.2 mm
11:40 PM 56.0°F13.3°C 55.7°F13.2°C 99% Calm Calm -- 26.71 in904.5 mb - 0.02 in0.5 mm 0.02 in0.5 mm
11:45 PM 54.0°F12.2°C 53.7°F12.1°C 99% Calm Calm -- 26.70 in904.2 mb - 0.02 in0.5 mm 0.02 in0.5 mm
11:50 PM 54.0°F12.2°C 53.7°F12.1°C 99% Calm Calm -- 26.70 in904.2 mb - 0.02 in0.5 mm 0.02 in0.5 mm
11:55 PM 54.0°F12.2°C 53.7°F12.1°C 99% Calm Calm -- 26.69 in903.8 mb - 0.02 in0.5 mm 0.02 in0.5 mm